createdAt,value
2018-07-26T00:01:31.265Z,25.30
2018-07-26T00:03:58.881Z,25.30
2018-07-26T00:06:26.436Z,25.20
2018-07-26T00:08:54.026Z,25.10
2018-07-26T00:11:21.588Z,25.10
2018-07-26T00:13:49.135Z,25.00
2018-07-26T00:16:16.678Z,25.00
2018-07-26T00:18:44.252Z,25.10
2018-07-26T00:21:11.802Z,25.10
2018-07-26T00:23:39.341Z,25.10
2018-07-26T00:26:06.979Z,25.10
2018-07-26T00:28:34.560Z,25.10
2018-07-26T00:31:02.106Z,25.10
2018-07-26T00:33:29.664Z,25.10
2018-07-26T00:35:57.240Z,25.00
2018-07-26T00:38:24.834Z,25.00
2018-07-26T00:40:52.462Z,25.00
2018-07-26T00:43:20.016Z,25.10
2018-07-26T00:45:47.632Z,25.00
2018-07-26T00:48:15.220Z,25.10
2018-07-26T00:50:42.780Z,25.10
2018-07-26T00:53:10.400Z,25.00
2018-07-26T00:55:38.021Z,25.00
2018-07-26T00:58:05.604Z,25.00
2018-07-26T01:00:33.137Z,24.90
2018-07-26T01:03:00.718Z,24.90
2018-07-26T01:05:28.287Z,24.90
2018-07-26T01:07:55.832Z,24.90
2018-07-26T01:10:23.423Z,24.80
2018-07-26T01:12:51.376Z,24.70
2018-07-26T01:15:18.994Z,24.80
2018-07-26T01:17:46.589Z,24.80
2018-07-26T01:20:14.134Z,24.70
2018-07-26T01:22:41.676Z,24.70
2018-07-26T01:25:09.339Z,24.70
2018-07-26T01:27:36.939Z,24.70
2018-07-26T01:30:04.576Z,24.70
2018-07-26T01:32:32.149Z,24.60
2018-07-26T01:37:27.214Z,24.60
2018-07-26T01:39:54.768Z,24.60
2018-07-26T01:42:22.308Z,24.50
2018-07-26T01:44:49.857Z,24.50
2018-07-26T01:47:17.428Z,24.50
2018-07-26T01:49:44.968Z,24.50
2018-07-26T01:52:12.558Z,24.50
2018-07-26T01:54:40.111Z,24.50
2018-07-26T01:57:07.701Z,24.40
2018-07-26T01:59:35.295Z,24.50
2018-07-26T02:02:03.073Z,24.40
2018-07-26T02:06:58.217Z,24.40
2018-07-26T02:09:25.811Z,24.40
2018-07-26T02:11:53.375Z,24.40
2018-07-26T02:14:26.629Z,24.40
2018-07-26T02:16:54.163Z,24.30
2018-07-26T02:19:21.733Z,24.30
2018-07-26T02:21:49.297Z,24.20
2018-07-26T02:24:16.837Z,24.10
2018-07-26T02:26:44.403Z,24.10
2018-07-26T02:29:11.973Z,24.10
2018-07-26T02:31:39.639Z,24.00
2018-07-26T02:34:07.196Z,24.00
2018-07-26T02:36:34.779Z,23.90
2018-07-26T02:39:02.463Z,23.90
2018-07-26T02:41:30.139Z,23.90
2018-07-26T02:46:25.209Z,23.90
2018-07-26T02:48:52.759Z,23.90
2018-07-26T02:51:20.336Z,23.80
2018-07-26T02:53:47.961Z,23.70
2018-07-26T02:56:15.566Z,23.60
2018-07-26T02:58:43.163Z,23.60
2018-07-26T03:01:10.782Z,23.50
2018-07-26T03:06:05.966Z,23.40
2018-07-26T03:08:33.563Z,23.40
2018-07-26T03:11:01.102Z,23.40
2018-07-26T03:13:28.715Z,23.40
2018-07-26T03:15:56.571Z,23.40
2018-07-26T03:18:24.173Z,23.30
2018-07-26T03:20:51.748Z,23.20
2018-07-26T03:23:19.335Z,23.10
2018-07-26T03:25:46.886Z,23.00
2018-07-26T03:28:14.459Z,23.10
2018-07-26T03:30:42.006Z,23.10
2018-07-26T03:33:09.599Z,23.10
2018-07-26T03:35:37.184Z,23.10
2018-07-26T03:38:05.048Z,23.10
2018-07-26T03:40:32.596Z,23.10
2018-07-26T03:43:00.170Z,23.10
2018-07-26T03:45:27.711Z,23.10
2018-07-26T03:47:55.259Z,23.00
2018-07-26T03:50:22.855Z,23.10
2018-07-26T03:52:50.432Z,23.00
2018-07-26T03:55:17.975Z,22.90
2018-07-26T03:57:45.578Z,22.90
2018-07-26T04:00:13.130Z,22.70
2018-07-26T04:02:40.688Z,22.70
2018-07-26T04:05:08.283Z,22.70
2018-07-26T04:07:35.855Z,22.70
2018-07-26T04:10:03.525Z,22.70
2018-07-26T04:12:31.082Z,22.80
2018-07-26T04:14:58.663Z,22.80
2018-07-26T04:17:26.227Z,22.80
2018-07-26T04:19:53.838Z,22.80
2018-07-26T04:22:21.404Z,22.80
2018-07-26T04:27:16.430Z,22.70
2018-07-26T04:29:44.014Z,22.80
2018-07-26T04:32:11.652Z,22.80
2018-07-26T04:34:39.186Z,22.80
2018-07-26T04:37:06.949Z,22.80
2018-07-26T04:39:34.535Z,22.80
2018-07-26T04:42:02.119Z,22.90
2018-07-26T04:44:29.727Z,22.90
2018-07-26T04:49:24.784Z,22.80
2018-07-26T04:51:52.332Z,22.80
2018-07-26T04:54:19.909Z,22.90
2018-07-26T04:56:47.445Z,23.00
2018-07-26T04:59:15.006Z,23.10
2018-07-26T05:01:42.568Z,23.10
2018-07-26T05:04:10.119Z,23.10
2018-07-26T05:06:37.683Z,23.00
2018-07-26T05:09:07.321Z,23.00
2018-07-26T05:11:34.884Z,23.00
2018-07-26T05:14:02.525Z,23.00
2018-07-26T05:16:30.139Z,23.20
2018-07-26T05:18:57.750Z,23.30
2018-07-26T05:21:25.304Z,23.50
2018-07-26T05:23:52.905Z,23.60
2018-07-26T05:26:20.480Z,23.70
2018-07-26T05:28:48.065Z,23.80
2018-07-26T05:31:15.685Z,24.00
2018-07-26T05:33:43.227Z,24.10
2018-07-26T05:36:10.843Z,24.20
2018-07-26T05:38:38.503Z,24.30
2018-07-26T05:41:06.061Z,24.30
2018-07-26T05:43:33.739Z,24.40
2018-07-26T05:46:01.351Z,24.50
2018-07-26T05:48:28.933Z,24.60
2018-07-26T05:50:56.558Z,24.70
2018-07-26T05:53:24.117Z,24.80
2018-07-26T05:55:51.676Z,24.80
2018-07-26T05:58:19.236Z,24.90
2018-07-26T06:00:46.839Z,24.90
2018-07-26T06:03:14.450Z,25.00
2018-07-26T06:05:42.098Z,25.10
2018-07-26T06:08:09.705Z,25.20
2018-07-26T06:10:37.295Z,25.20
2018-07-26T06:13:05.273Z,25.30
2018-07-26T06:15:33.007Z,25.40
2018-07-26T06:20:28.048Z,25.50
2018-07-26T06:22:55.797Z,25.60
2018-07-26T06:25:23.418Z,25.70
2018-07-26T06:27:51.150Z,25.80
2018-07-26T06:30:18.743Z,25.90
2018-07-26T06:32:46.376Z,26.00
2018-07-26T06:35:14.084Z,26.00
2018-07-26T06:37:41.705Z,26.10
2018-07-26T06:40:09.377Z,26.20
2018-07-26T06:42:36.952Z,26.30
2018-07-26T06:45:06.335Z,26.40
2018-07-26T06:47:33.899Z,26.50
2018-07-26T06:50:01.509Z,26.60
2018-07-26T06:52:29.173Z,26.70
2018-07-26T06:54:56.751Z,26.70
2018-07-26T06:57:24.559Z,26.80
2018-07-26T06:59:52.191Z,26.90
2018-07-26T07:02:19.766Z,27.00
2018-07-26T07:04:47.339Z,27.20
2018-07-26T07:07:14.946Z,27.20
2018-07-26T07:09:42.491Z,27.30
2018-07-26T07:12:10.086Z,27.40
2018-07-26T07:14:37.679Z,27.50
2018-07-26T07:17:05.328Z,27.60
2018-07-26T07:19:32.930Z,27.80
2018-07-26T07:22:00.480Z,27.90
2018-07-26T07:24:28.020Z,28.00
2018-07-26T07:26:55.597Z,28.10
2018-07-26T07:29:23.161Z,28.20
2018-07-26T07:31:50.798Z,28.10
2018-07-26T07:34:18.358Z,28.30
2018-07-26T07:36:45.959Z,28.50
2018-07-26T07:39:14.038Z,28.60
2018-07-26T07:41:41.636Z,28.80
2018-07-26T07:44:09.516Z,28.90
2018-07-26T07:46:37.562Z,29.00
2018-07-26T07:49:05.127Z,29.20
2018-07-26T07:51:33.132Z,29.30
2018-07-26T07:54:00.693Z,29.40
2018-07-26T07:56:28.274Z,29.50
2018-07-26T07:58:55.828Z,29.60
2018-07-26T08:01:23.404Z,29.70
2018-07-26T08:03:50.988Z,29.80
2018-07-26T08:06:18.925Z,29.90
2018-07-26T08:08:46.509Z,29.90
2018-07-26T08:11:14.403Z,29.90
2018-07-26T08:13:41.992Z,29.80
2018-07-26T08:16:09.700Z,29.90
2018-07-26T08:18:37.254Z,30.20
2018-07-26T08:21:04.868Z,30.30
2018-07-26T08:23:32.555Z,30.50
2018-07-26T08:26:00.169Z,30.60
2018-07-26T08:28:27.745Z,30.70
2018-07-26T08:30:55.350Z,30.70
2018-07-26T08:33:22.938Z,30.60
2018-07-26T08:35:50.557Z,30.40
2018-07-26T08:38:18.163Z,30.40
2018-07-26T08:40:45.770Z,30.50
2018-07-26T08:43:13.345Z,30.90
2018-07-26T08:45:40.956Z,30.70
2018-07-26T08:50:36.096Z,31.10
2018-07-26T08:53:03.692Z,31.40
2018-07-26T08:55:31.278Z,31.50
2018-07-26T08:57:58.896Z,31.70
2018-07-26T09:00:26.497Z,31.90
2018-07-26T09:02:54.072Z,31.90
2018-07-26T09:05:21.694Z,31.90
2018-07-26T09:07:49.304Z,32.10
2018-07-26T09:10:16.916Z,32.20
2018-07-26T09:12:44.540Z,32.20
2018-07-26T09:15:12.108Z,32.30
2018-07-26T09:17:39.756Z,32.20
2018-07-26T09:20:07.436Z,32.10
2018-07-26T09:22:35.032Z,32.30
2018-07-26T09:25:02.674Z,32.60
2018-07-26T09:27:30.278Z,32.80
2018-07-26T09:29:57.836Z,32.90
2018-07-26T09:32:25.440Z,32.90
2018-07-26T09:34:52.988Z,33.10
2018-07-26T09:37:20.643Z,33.10
2018-07-26T09:39:48.246Z,33.00
2018-07-26T09:42:15.842Z,33.50
2018-07-26T09:44:43.520Z,33.80
2018-07-26T09:47:11.124Z,33.80
2018-07-26T09:49:38.718Z,33.70
2018-07-26T09:52:06.334Z,34.10
2018-07-26T09:54:33.901Z,34.30
2018-07-26T09:57:01.553Z,34.50
2018-07-26T09:59:29.135Z,34.50
2018-07-26T10:01:56.692Z,34.30
2018-07-26T10:06:51.901Z,34.40
2018-07-26T10:09:19.473Z,34.50
2018-07-26T10:11:47.094Z,34.70
2018-07-26T10:14:14.867Z,35.00
2018-07-26T10:16:42.425Z,35.20
2018-07-26T10:19:10.031Z,35.40
2018-07-26T10:21:37.647Z,35.50
2018-07-26T10:24:05.311Z,35.60
2018-07-26T10:26:32.893Z,35.40
2018-07-26T10:29:00.458Z,35.60
2018-07-26T10:31:28.001Z,35.90
2018-07-26T10:33:55.573Z,35.90
2018-07-26T10:36:23.232Z,35.70
2018-07-26T10:38:50.837Z,36.00
2018-07-26T10:41:18.547Z,36.30
2018-07-26T10:43:46.143Z,36.50
2018-07-26T10:48:41.223Z,36.30
2018-07-26T10:51:08.814Z,36.80
2018-07-26T10:53:36.427Z,36.70
2018-07-26T10:56:04.538Z,36.90
2018-07-26T10:58:32.100Z,37.30
2018-07-26T11:00:59.765Z,37.50
2018-07-26T11:03:27.377Z,37.60
2018-07-26T11:05:54.940Z,38.00
2018-07-26T11:08:22.510Z,38.30
2018-07-26T11:10:50.111Z,38.00
2018-07-26T11:13:17.709Z,38.00
2018-07-26T11:15:45.312Z,38.40
2018-07-26T11:18:12.995Z,38.90
2018-07-26T11:20:40.631Z,39.10
2018-07-26T11:23:08.281Z,39.40
2018-07-26T11:25:35.896Z,39.20
2018-07-26T11:28:03.606Z,38.90
2018-07-26T11:30:31.243Z,38.60
2018-07-26T11:32:58.893Z,38.40
2018-07-26T11:35:26.505Z,38.50
2018-07-26T11:37:54.164Z,38.80
2018-07-26T11:40:21.811Z,38.70
2018-07-26T11:42:49.423Z,38.80
2018-07-26T11:45:17.048Z,38.60
2018-07-26T11:47:44.693Z,38.90
2018-07-26T11:50:12.729Z,38.60
2018-07-26T11:52:40.351Z,38.80
2018-07-26T11:55:08.036Z,39.00
2018-07-26T11:57:35.687Z,39.10
2018-07-26T12:00:04.188Z,39.40
2018-07-26T12:02:31.869Z,39.90
2018-07-26T12:04:59.499Z,40.50
2018-07-26T12:10:01.520Z,41.00
2018-07-26T12:12:29.193Z,40.90
2018-07-26T12:14:56.853Z,41.00
2018-07-26T12:17:24.487Z,41.20
2018-07-26T12:19:52.141Z,41.10
2018-07-26T12:22:19.771Z,41.20
2018-07-26T12:24:47.439Z,41.00
2018-07-26T12:27:15.050Z,41.20
2018-07-26T12:29:42.675Z,41.00
2018-07-26T12:32:10.315Z,40.60
2018-07-26T12:34:37.967Z,40.60
2018-07-26T12:37:05.651Z,40.70
2018-07-26T12:39:33.307Z,40.90
2018-07-26T12:42:00.933Z,41.00
2018-07-26T12:44:28.583Z,41.20
2018-07-26T12:46:56.316Z,41.30
2018-07-26T12:49:23.947Z,41.30
2018-07-26T12:51:51.599Z,41.40
2018-07-26T12:54:19.286Z,41.40
2018-07-26T12:56:46.923Z,41.50
2018-07-26T12:59:14.677Z,41.50
2018-07-26T13:01:42.329Z,41.70
2018-07-26T13:04:09.948Z,42.30
2018-07-26T13:06:37.582Z,42.00
2018-07-26T13:09:06.933Z,42.10
2018-07-26T13:11:34.539Z,41.90
2018-07-26T13:14:02.455Z,42.10
2018-07-26T13:16:30.090Z,42.00
2018-07-26T13:18:57.723Z,42.10
2018-07-26T13:21:25.379Z,42.40
2018-07-26T13:23:52.987Z,42.50
2018-07-26T13:26:20.621Z,42.60
2018-07-26T13:28:48.260Z,42.60
2018-07-26T13:31:15.907Z,42.90
2018-07-26T13:33:43.513Z,43.00
2018-07-26T13:36:11.115Z,43.20
2018-07-26T13:38:38.757Z,43.20
2018-07-26T13:41:06.376Z,43.30
2018-07-26T13:43:34.000Z,43.40
2018-07-26T13:46:01.640Z,43.00
2018-07-26T13:48:29.247Z,43.20
2018-07-26T13:50:57.031Z,43.40
2018-07-26T13:53:24.653Z,43.80
2018-07-26T13:55:52.283Z,44.00
2018-07-26T13:58:19.958Z,43.90
2018-07-26T14:00:47.628Z,44.00
2018-07-26T14:03:15.261Z,43.70
2018-07-26T14:05:42.984Z,43.30
2018-07-26T14:08:10.624Z,43.30
2018-07-26T14:10:38.268Z,43.20
2018-07-26T14:13:05.936Z,43.30
2018-07-26T14:15:33.766Z,43.40
2018-07-26T14:18:01.391Z,44.20
2018-07-26T14:20:29.050Z,45.10
2018-07-26T14:22:56.680Z,46.00
2018-07-26T14:25:24.306Z,46.40
2018-07-26T14:27:52.023Z,45.70
2018-07-26T14:30:19.614Z,45.20
2018-07-26T14:32:47.260Z,44.40
2018-07-26T14:35:14.927Z,43.60
2018-07-26T14:37:42.584Z,42.70
2018-07-26T14:40:10.246Z,42.30
2018-07-26T14:42:37.913Z,42.20
2018-07-26T14:45:05.880Z,41.40
2018-07-26T14:47:33.658Z,41.10
2018-07-26T14:50:01.301Z,40.70
2018-07-26T14:52:28.950Z,40.70
2018-07-26T14:54:56.587Z,40.90
2018-07-26T14:57:24.228Z,41.30
2018-07-26T14:59:51.905Z,41.70
2018-07-26T15:02:19.544Z,41.60
2018-07-26T15:04:47.172Z,42.00
2018-07-26T15:07:14.805Z,42.30
2018-07-26T15:09:42.541Z,42.70
2018-07-26T15:12:10.226Z,43.30
2018-07-26T15:14:37.910Z,44.00
2018-07-26T15:17:05.661Z,43.90
2018-07-26T15:19:33.386Z,44.10
2018-07-26T15:22:01.061Z,44.10
2018-07-26T15:24:30.355Z,44.40
2018-07-26T15:26:57.904Z,44.60
2018-07-26T15:31:53.122Z,44.20
2018-07-26T15:34:20.754Z,43.90
2018-07-26T15:36:48.484Z,44.50
2018-07-26T15:39:16.132Z,45.10
2018-07-26T15:41:44.596Z,45.70
2018-07-26T15:44:13.630Z,46.10
2018-07-26T15:46:41.384Z,46.70
2018-07-26T15:49:09.338Z,46.50
2018-07-26T15:51:37.028Z,46.50
2018-07-26T15:54:04.712Z,46.30
2018-07-26T15:56:32.459Z,45.80
2018-07-26T15:59:00.141Z,45.00
2018-07-26T16:01:28.097Z,44.10
2018-07-26T16:03:55.837Z,43.90
2018-07-26T16:06:23.544Z,43.80
2018-07-26T16:08:51.185Z,43.80
2018-07-26T16:11:18.940Z,43.50
2018-07-26T16:13:46.649Z,43.40
2018-07-26T16:16:14.345Z,43.20
2018-07-26T16:18:41.987Z,43.00
2018-07-26T16:21:09.665Z,42.50
2018-07-26T16:23:37.316Z,42.20
2018-07-26T16:26:05.229Z,42.20
2018-07-26T16:28:32.916Z,42.20
2018-07-26T16:31:00.533Z,43.00
2018-07-26T16:33:28.193Z,43.30
2018-07-26T16:35:55.829Z,43.00
2018-07-26T16:38:23.509Z,43.20
2018-07-26T16:40:52.387Z,43.70
2018-07-26T16:43:20.104Z,43.80
2018-07-26T16:45:48.005Z,44.30
2018-07-26T16:48:15.733Z,44.60
2018-07-26T16:50:43.489Z,44.60
2018-07-26T16:53:11.203Z,44.70
2018-07-26T16:55:39.271Z,44.70
2018-07-26T16:58:06.966Z,44.90
2018-07-26T17:00:35.018Z,44.80
2018-07-26T17:03:02.713Z,44.80
2018-07-26T17:05:30.416Z,44.80
2018-07-26T17:07:58.115Z,44.60
2018-07-26T17:10:25.791Z,44.70
2018-07-26T17:12:53.474Z,45.00
2018-07-26T17:15:21.123Z,45.00
2018-07-26T17:17:48.789Z,44.70
2018-07-26T17:20:16.454Z,44.60
2018-07-26T17:22:44.193Z,44.60
2018-07-26T17:25:11.850Z,44.20
2018-07-26T17:27:39.543Z,43.90
2018-07-26T17:30:07.263Z,43.90
2018-07-26T17:32:34.978Z,43.90
2018-07-26T17:35:02.617Z,44.00
2018-07-26T17:37:30.284Z,43.90
2018-07-26T17:39:57.956Z,44.00
2018-07-26T17:42:25.583Z,43.80
2018-07-26T17:44:53.266Z,43.50
2018-07-26T17:47:20.892Z,43.70
2018-07-26T17:49:48.524Z,43.90
2018-07-26T17:52:16.219Z,43.80
2018-07-26T17:54:43.862Z,43.80
2018-07-26T17:57:11.457Z,43.90
2018-07-26T17:59:39.100Z,43.90
2018-07-26T18:02:06.743Z,43.70
2018-07-26T18:04:34.392Z,43.60
2018-07-26T18:09:29.575Z,42.20
2018-07-26T18:11:57.246Z,41.10
2018-07-26T18:14:24.921Z,40.10
2018-07-26T18:16:52.533Z,39.50
2018-07-26T18:19:20.178Z,39.30
2018-07-26T18:21:47.845Z,38.90
2018-07-26T18:24:15.468Z,38.90
2018-07-26T18:26:43.096Z,38.70
2018-07-26T18:29:10.761Z,38.60
2018-07-26T18:31:38.497Z,38.40
2018-07-26T18:34:06.047Z,38.20
2018-07-26T18:36:33.925Z,38.00
2018-07-26T18:39:01.933Z,37.70
2018-07-26T18:41:29.597Z,37.50
2018-07-26T18:43:57.266Z,37.10
2018-07-26T18:46:24.885Z,36.90
2018-07-26T18:48:52.558Z,36.70
2018-07-26T18:51:20.231Z,36.50
2018-07-26T18:53:47.896Z,36.30
2018-07-26T18:56:15.632Z,36.10
2018-07-26T18:58:43.323Z,35.50
2018-07-26T19:01:10.994Z,35.50
2018-07-26T19:06:06.347Z,35.20
2018-07-26T19:08:34.097Z,35.00
2018-07-26T19:11:01.751Z,34.60
2018-07-26T19:13:29.402Z,34.50
2018-07-26T19:15:57.031Z,34.40
2018-07-26T19:18:24.681Z,34.30
2018-07-26T19:20:52.326Z,34.00
2018-07-26T19:23:20.072Z,33.80
2018-07-26T19:25:47.696Z,33.80
2018-07-26T19:28:15.329Z,33.80
2018-07-26T19:30:42.961Z,33.80
2018-07-26T19:33:10.560Z,33.80
2018-07-26T19:35:38.210Z,33.60
2018-07-26T19:38:05.858Z,33.50
2018-07-26T19:40:33.494Z,33.30
2018-07-26T19:43:01.151Z,33.10
2018-07-26T19:45:28.759Z,33.00
2018-07-26T19:47:56.375Z,32.90
2018-07-26T19:50:24.043Z,32.70
2018-07-26T19:52:51.672Z,32.70
2018-07-26T19:55:19.286Z,32.50
2018-07-26T19:57:46.959Z,32.40
2018-07-26T20:00:14.622Z,32.20
2018-07-26T20:02:42.350Z,32.10
2018-07-26T20:05:10.049Z,31.90
2018-07-26T20:07:37.846Z,31.80
2018-07-26T20:10:07.848Z,31.60
2018-07-26T20:12:35.591Z,31.40
2018-07-26T20:15:03.950Z,31.30
2018-07-26T20:17:31.838Z,31.20
2018-07-26T20:19:59.597Z,31.20
2018-07-26T20:24:55.169Z,31.10
2018-07-26T20:27:22.808Z,30.90
2018-07-26T20:29:50.505Z,30.60
2018-07-26T20:32:18.325Z,30.60
2018-07-26T20:34:46.090Z,30.40
2018-07-26T20:37:13.849Z,30.30
2018-07-26T20:39:41.588Z,30.20
2018-07-26T20:42:09.384Z,30.20
2018-07-26T20:44:37.009Z,30.20
2018-07-26T20:47:04.822Z,30.10
2018-07-26T20:49:32.468Z,30.00
2018-07-26T20:52:00.138Z,29.90
2018-07-26T20:54:27.849Z,29.70
2018-07-26T20:56:55.476Z,29.60
2018-07-26T20:59:23.191Z,29.50
2018-07-26T21:01:50.996Z,29.40
2018-07-26T21:04:18.695Z,29.30
2018-07-26T21:06:46.440Z,29.30
2018-07-26T21:09:14.257Z,29.30
2018-07-26T21:11:42.628Z,29.20
2018-07-26T21:14:10.288Z,29.20
2018-07-26T21:16:37.964Z,29.20
2018-07-26T21:19:05.716Z,29.10
2018-07-26T21:21:33.464Z,29.00
2018-07-26T21:24:01.118Z,28.80
2018-07-26T21:26:28.775Z,28.70
2018-07-26T21:28:56.570Z,28.60
2018-07-26T21:31:24.227Z,28.60
2018-07-26T21:33:51.868Z,28.70
2018-07-26T21:36:19.949Z,28.70
2018-07-26T21:38:47.619Z,28.80
2018-07-26T21:41:15.361Z,28.80
2018-07-26T21:43:43.005Z,28.70
2018-07-26T21:46:10.696Z,28.60
2018-07-26T21:48:38.397Z,28.60
2018-07-26T21:51:06.157Z,28.50
2018-07-26T21:53:33.765Z,28.40
2018-07-26T21:56:01.471Z,28.40
2018-07-26T21:58:29.082Z,28.30
2018-07-26T22:00:57.787Z,28.20
2018-07-26T22:03:26.883Z,28.20
2018-07-26T22:05:54.943Z,28.20
2018-07-26T22:08:22.596Z,28.20
2018-07-26T22:10:50.483Z,28.20
2018-07-26T22:13:18.641Z,28.10
2018-07-26T22:15:46.313Z,28.10
2018-07-26T22:18:13.976Z,28.00
2018-07-26T22:20:41.591Z,27.90
2018-07-26T22:23:09.272Z,27.80
2018-07-26T22:25:36.846Z,27.80
2018-07-26T22:28:04.739Z,27.80
2018-07-26T22:30:32.391Z,27.80
2018-07-26T22:33:00.064Z,27.80
2018-07-26T22:35:27.733Z,27.80
2018-07-26T22:37:55.361Z,27.80
2018-07-26T22:40:23.025Z,27.90
2018-07-26T22:42:50.650Z,27.80
2018-07-26T22:45:18.313Z,27.80
2018-07-26T22:47:45.917Z,27.70
2018-07-26T22:50:13.792Z,27.60
2018-07-26T22:52:41.441Z,27.50
2018-07-26T22:55:09.203Z,27.50
2018-07-26T22:57:36.883Z,27.40
2018-07-26T23:00:05.447Z,27.10
2018-07-26T23:02:33.640Z,27.00
2018-07-26T23:07:35.574Z,26.90
2018-07-26T23:12:31.195Z,26.90
2018-07-26T23:14:58.822Z,26.90
2018-07-26T23:17:26.425Z,26.90
2018-07-26T23:22:21.671Z,26.90
2018-07-26T23:24:55.871Z,26.70
2018-07-26T23:27:23.521Z,26.70
2018-07-26T23:29:51.114Z,26.60
2018-07-26T23:32:18.783Z,26.60
2018-07-26T23:34:46.409Z,26.60
2018-07-26T23:37:14.019Z,26.60
2018-07-26T23:39:41.644Z,26.70
2018-07-26T23:42:09.252Z,26.60
2018-07-26T23:44:36.916Z,26.40
2018-07-26T23:47:04.816Z,26.40
2018-07-26T23:49:32.455Z,26.40
2018-07-26T23:52:00.059Z,26.30
2018-07-26T23:54:27.677Z,26.30
2018-07-26T23:59:22.849Z,26.30
